Time;durP1;ratioP1;P1;durP2;ratioP2;P2;SDS_P1;SDS_P2;PMS_P1;PMS_P2;Temp;Humidity;BMP_temperature;BMP_pressure;BME280_temperature;BME280_humidity;BME280_pressure;Samples;Min_cycle;Max_cycle;Signal;HPM_P1;HPM_P2
2021/10/29 00:00:45;;;;;;;;;;;18.60;59.30;;;;;;5020848;28;19913;-55
2021/10/29 00:03:11;;;;;;;;;;;18.60;59.30;;;;;;5022452;28;19917;-56
2021/10/29 00:05:36;;;;;;;;;;;18.60;59.20;;;;;;5019448;28;19917;-55
2021/10/29 00:08:04;;;;;;;;;;;18.60;59.20;;;;;;5020067;28;25517;-55
2021/10/29 00:10:29;;;;;;;;;;;18.60;59.20;;;;;;5018440;28;20257;-54
2021/10/29 00:12:55;;;;;;;;;;;18.60;59.20;;;;;;5022978;28;20409;-56
2021/10/29 00:15:20;;;;;;;;;;;18.60;59.20;;;;;;5018148;28;19925;-52
2021/10/29 00:17:46;;;;;;;;;;;18.60;59.20;;;;;;5022423;28;19917;-53
2021/10/29 00:20:11;;;;;;;;;;;18.60;59.20;;;;;;5016946;28;19925;-54
2021/10/29 00:22:38;;;;;;;;;;;18.60;59.20;;;;;;5023619;28;19917;-55
2021/10/29 00:25:03;;;;;;;;;;;18.60;59.10;;;;;;5016482;28;19924;-56
2021/10/29 00:27:29;;;;;;;;;;;18.60;59.00;;;;;;5012277;28;19917;-54
2021/10/29 00:29:55;;;;;;;;;;;18.60;59.00;;;;;;5017769;28;19913;-57
2021/10/29 00:32:21;;;;;;;;;;;18.60;59.00;;;;;;5011161;28;20357;-57
2021/10/29 00:34:46;;;;;;;;;;;18.60;59.00;;;;;;4992670;28;19922;-55
2021/10/29 00:37:12;;;;;;;;;;;18.60;59.00;;;;;;5024321;28;20366;-53
2021/10/29 00:39:37;;;;;;;;;;;18.60;59.00;;;;;;5008804;28;19971;-55
2021/10/29 00:42:03;;;;;;;;;;;18.60;58.90;;;;;;5010289;28;19917;-53
2021/10/29 00:44:28;;;;;;;;;;;18.60;58.90;;;;;;5002350;28;20374;-55
2021/10/29 00:46:54;;;;;;;;;;;18.60;58.90;;;;;;4998942;28;19918;-54
2021/10/29 00:49:19;;;;;;;;;;;18.60;58.90;;;;;;4999045;28;20188;-58
2021/10/29 00:51:45;;;;;;;;;;;18.60;58.90;;;;;;5014448;28;19917;-55
2021/10/29 00:54:11;;;;;;;;;;;18.60;58.90;;;;;;5014431;28;19920;-54
2021/10/29 00:56:36;;;;;;;;;;;18.60;59.00;;;;;;5017373;28;20627;-54
2021/10/29 00:59:02;;;;;;;;;;;18.50;58.90;;;;;;5005225;28;19964;-55
2021/10/29 01:01:27;;;;;;;;;;;18.50;58.90;;;;;;5010961;28;20442;-58
2021/10/29 01:03:53;;;;;;;;;;;18.50;58.90;;;;;;5010408;28;19918;-57
2021/10/29 01:06:18;;;;;;;;;;;18.50;58.90;;;;;;5003077;28;19913;-59
2021/10/29 01:08:44;;;;;;;;;;;18.50;58.80;;;;;;5012978;28;20366;-55
2021/10/29 01:11:13;;;;;;;;;;;18.50;58.80;;;;;;5018858;28;20350;-53
2021/10/29 01:13:38;;;;;;;;;;;18.50;58.70;;;;;;5002641;28;19939;-57
2021/10/29 01:16:05;;;;;;;;;;;18.50;58.70;;;;;;5018004;28;19931;-57
2021/10/29 01:18:31;;;;;;;;;;;18.50;58.70;;;;;;5021318;28;19992;-53
2021/10/29 01:20:57;;;;;;;;;;;18.50;58.70;;;;;;5027743;28;20032;-56
2021/10/29 01:23:22;;;;;;;;;;;18.50;58.60;;;;;;5021014;28;19917;-54
2021/10/29 01:25:48;;;;;;;;;;;18.50;58.60;;;;;;5019309;28;19913;-53
2021/10/29 01:28:13;;;;;;;;;;;18.50;58.60;;;;;;5032071;28;20797;-52
2021/10/29 01:30:39;;;;;;;;;;;18.50;58.60;;;;;;5017210;28;19940;-57
2021/10/29 01:33:04;;;;;;;;;;;18.50;58.60;;;;;;5021606;28;19949;-57
2021/10/29 01:35:30;;;;;;;;;;;18.50;58.50;;;;;;5019492;28;19971;-57
2021/10/29 01:37:55;;;;;;;;;;;18.50;58.50;;;;;;5018383;28;20353;-55
2021/10/29 01:40:21;;;;;;;;;;;18.50;58.50;;;;;;5019468;28;19925;-57
2021/10/29 01:42:47;;;;;;;;;;;18.50;58.50;;;;;;5020788;28;19928;-51
2021/10/29 01:45:13;;;;;;;;;;;18.50;58.40;;;;;;5017919;28;19920;-55
2021/10/29 01:47:38;;;;;;;;;;;18.50;58.40;;;;;;5021736;28;19917;-58
2021/10/29 01:50:04;;;;;;;;;;;18.50;58.40;;;;;;5018798;28;19917;-53
2021/10/29 01:52:29;;;;;;;;;;;18.50;58.40;;;;;;5021159;28;19944;-57
2021/10/29 01:54:55;;;;;;;;;;;18.40;58.30;;;;;;5018095;28;19919;-58
2021/10/29 01:57:21;;;;;;;;;;;18.50;58.40;;;;;;5018782;28;20275;-56
2021/10/29 01:59:47;;;;;;;;;;;18.50;58.40;;;;;;5019042;28;19971;-52
2021/10/29 02:02:12;;;;;;;;;;;18.50;58.40;;;;;;5021187;28;20333;-54
2021/10/29 02:04:38;;;;;;;;;;;18.50;58.30;;;;;;5020425;28;19913;-56
2021/10/29 02:07:03;;;;;;;;;;;18.50;58.30;;;;;;5016588;28;19939;-57
2021/10/29 02:09:29;;;;;;;;;;;18.50;58.40;;;;;;5021562;28;19913;-53
2021/10/29 02:11:54;;;;;;;;;;;18.40;58.30;;;;;;5016696;28;19914;-52
2021/10/29 02:14:20;;;;;;;;;;;18.50;58.30;;;;;;5020841;28;19921;-51
2021/10/29 02:16:45;;;;;;;;;;;18.40;58.20;;;;;;5017298;28;19921;-56
2021/10/29 02:19:11;;;;;;;;;;;18.40;58.30;;;;;;5020144;28;19920;-52
2021/10/29 02:21:37;;;;;;;;;;;18.40;58.30;;;;;;5012270;28;19917;-59
2021/10/29 02:24:03;;;;;;;;;;;18.40;58.20;;;;;;5014027;28;19912;-53
2021/10/29 02:26:28;;;;;;;;;;;18.40;58.20;;;;;;5003333;28;19917;-54
2021/10/29 02:28:54;;;;;;;;;;;18.40;58.20;;;;;;5008419;28;20012;-53
2021/10/29 02:31:19;;;;;;;;;;;18.40;58.30;;;;;;5005926;28;19914;-54
2021/10/29 02:33:45;;;;;;;;;;;18.40;58.20;;;;;;5008972;28;19967;-58
2021/10/29 02:36:10;;;;;;;;;;;18.40;58.30;;;;;;5036493;28;19919;-55
2021/10/29 02:38:35;;;;;;;;;;;18.40;58.20;;;;;;5031767;28;19975;-53
2021/10/29 02:41:02;;;;;;;;;;;18.30;58.10;;;;;;5027193;28;19927;-59
2021/10/29 02:43:29;;;;;;;;;;;18.40;58.20;;;;;;5020580;28;19956;-53
2021/10/29 02:45:54;;;;;;;;;;;18.40;58.20;;;;;;5000645;28;19913;-55
2021/10/29 02:48:20;;;;;;;;;;;18.30;58.10;;;;;;5029855;28;19913;-54
2021/10/29 02:50:45;;;;;;;;;;;18.40;58.20;;;;;;5027054;28;19921;-53
2021/10/29 02:53:11;;;;;;;;;;;18.30;58.10;;;;;;5037236;28;19935;-54
2021/10/29 02:55:36;;;;;;;;;;;18.40;58.20;;;;;;5028658;28;20320;-53
2021/10/29 02:58:02;;;;;;;;;;;18.30;58.10;;;;;;5021397;28;19928;-50
2021/10/29 03:00:27;;;;;;;;;;;18.30;58.00;;;;;;5022809;28;19917;-56
2021/10/29 03:02:53;;;;;;;;;;;18.30;58.10;;;;;;5028806;28;20310;-54
2021/10/29 03:05:18;;;;;;;;;;;18.30;58.10;;;;;;5016299;28;19921;-54
2021/10/29 03:07:44;;;;;;;;;;;18.30;58.00;;;;;;5026255;28;20007;-56
2021/10/29 03:10:10;;;;;;;;;;;18.30;58.00;;;;;;5035074;28;19919;-55
2021/10/29 03:12:35;;;;;;;;;;;18.30;58.00;;;;;;5031561;28;19917;-54
2021/10/29 03:15:01;;;;;;;;;;;18.30;58.00;;;;;;5032396;28;19940;-55
2021/10/29 03:17:26;;;;;;;;;;;18.30;58.00;;;;;;5031421;28;19974;-53
2021/10/29 03:19:52;;;;;;;;;;;18.30;57.90;;;;;;5021636;28;20294;-57
2021/10/29 03:22:17;;;;;;;;;;;18.30;57.90;;;;;;5030311;28;19913;-57
2021/10/29 03:24:43;;;;;;;;;;;18.30;57.90;;;;;;5028212;28;19917;-58
2021/10/29 03:27:08;;;;;;;;;;;18.30;57.80;;;;;;5043272;28;19912;-55
2021/10/29 03:29:34;;;;;;;;;;;18.30;57.80;;;;;;5043859;28;19913;-57
2021/10/29 03:31:59;;;;;;;;;;;18.30;57.90;;;;;;5020347;28;19979;-53
2021/10/29 03:34:25;;;;;;;;;;;18.30;57.80;;;;;;5042105;28;19913;-53
2021/10/29 03:36:50;;;;;;;;;;;18.30;57.80;;;;;;5027588;28;19986;-53
2021/10/29 03:39:25;;;;;;;;;;;18.20;57.80;;;;;;5043108;28;19924;-53
2021/10/29 03:42:19;;;;;;;;;;;18.30;57.80;;;;;;5033911;28;20382;-54
2021/10/29 03:47:18;;;;;;;;;;;18.20;57.80;;;;;;5010288;28;19914;-55
2021/10/29 03:49:50;;;;;;;;;;;18.20;57.70;;;;;;5002152;28;20004;-53
2021/10/29 03:52:25;;;;;;;;;;;18.20;57.80;;;;;;5007184;28;19917;-53
2021/10/29 03:54:54;;;;;;;;;;;18.20;57.80;;;;;;5023352;28;19920;-54
2021/10/29 03:57:27;;;;;;;;;;;18.20;57.80;;;;;;5010716;28;19947;-52
2021/10/29 03:59:53;;;;;;;;;;;18.20;57.80;;;;;;5018945;28;19960;-55
2021/10/29 04:02:19;;;;;;;;;;;18.20;57.80;;;;;;5008663;28;19920;-55
2021/10/29 04:04:45;;;;;;;;;;;18.20;57.80;;;;;;5027248;28;20735;-56
2021/10/29 04:07:10;;;;;;;;;;;18.20;57.80;;;;;;5010789;28;19920;-56
2021/10/29 04:09:36;;;;;;;;;;;18.20;57.80;;;;;;5031866;28;19913;-54
2021/10/29 04:12:01;;;;;;;;;;;18.20;57.80;;;;;;5007998;28;19918;-58
2021/10/29 04:14:28;;;;;;;;;;;18.20;57.80;;;;;;5013409;22;19925;-54
2021/10/29 04:16:54;;;;;;;;;;;18.20;57.80;;;;;;5025716;28;20278;-55
2021/10/29 04:19:20;;;;;;;;;;;18.20;57.80;;;;;;5021532;28;19920;-57
2021/10/29 04:21:45;;;;;;;;;;;18.20;57.80;;;;;;5016295;28;19920;-53
2021/10/29 04:24:11;;;;;;;;;;;18.20;57.80;;;;;;5023413;28;19920;-59
2021/10/29 04:26:37;;;;;;;;;;;18.20;57.80;;;;;;5022413;28;19913;-55
2021/10/29 04:29:12;;;;;;;;;;;18.20;57.80;;;;;;5023072;28;19917;-57
2021/10/29 04:31:46;;;;;;;;;;;18.20;57.80;;;;;;5023373;28;19913;-58
2021/10/29 04:34:12;;;;;;;;;;;18.10;57.70;;;;;;5019795;28;19971;-55
2021/10/29 04:36:37;;;;;;;;;;;18.10;57.70;;;;;;5023602;28;20642;-59
2021/10/29 04:39:09;;;;;;;;;;;18.10;57.60;;;;;;5023856;28;19921;-56
2021/10/29 04:41:35;;;;;;;;;;;18.10;57.60;;;;;;5024368;28;20190;-56
2021/10/29 04:44:00;;;;;;;;;;;18.20;57.80;;;;;;5028667;28;19920;-58
2021/10/29 04:46:25;;;;;;;;;;;18.10;57.90;;;;;;5023295;28;19971;-58
2021/10/29 04:48:51;;;;;;;;;;;18.10;58.00;;;;;;5023094;28;20310;-55
2021/10/29 04:51:17;;;;;;;;;;;18.10;58.10;;;;;;5023596;28;19917;-58
2021/10/29 04:53:42;;;;;;;;;;;18.10;58.10;;;;;;5023073;28;19995;-59
2021/10/29 04:56:08;;;;;;;;;;;18.10;58.00;;;;;;5023035;28;21336;-58
2021/10/29 04:58:34;;;;;;;;;;;18.10;58.00;;;;;;5023054;28;20363;-54
2021/10/29 05:01:00;;;;;;;;;;;18.10;58.00;;;;;;5017225;28;19996;-54
2021/10/29 05:03:25;;;;;;;;;;;18.10;58.00;;;;;;5026018;28;20562;-52
2021/10/29 05:05:51;;;;;;;;;;;18.10;58.10;;;;;;5022259;28;19917;-55
2021/10/29 05:08:16;;;;;;;;;;;18.10;58.00;;;;;;5022922;28;19918;-59
2021/10/29 05:10:42;;;;;;;;;;;18.10;58.00;;;;;;5020785;28;20669;-57
2021/10/29 05:13:07;;;;;;;;;;;18.10;57.80;;;;;;5022075;28;19917;-59
2021/10/29 05:15:33;;;;;;;;;;;18.10;57.80;;;;;;5021775;28;19928;-57
2021/10/29 05:17:58;;;;;;;;;;;18.10;57.60;;;;;;5020010;28;19921;-57
2021/10/29 05:20:24;;;;;;;;;;;18.10;57.60;;;;;;5021809;28;19917;-57
2021/10/29 05:22:50;;;;;;;;;;;18.10;57.60;;;;;;5020538;28;20059;-52
2021/10/29 05:25:15;;;;;;;;;;;18.10;58.10;;;;;;5034679;28;19916;-59
2021/10/29 05:27:40;;;;;;;;;;;18.10;58.70;;;;;;5036924;28;20421;-56
2021/10/29 05:30:07;;;;;;;;;;;18.10;59.10;;;;;;5033441;28;19913;-55
2021/10/29 05:32:33;;;;;;;;;;;18.10;59.20;;;;;;5021812;28;19996;-54
2021/10/29 05:35:00;;;;;;;;;;;18.10;59.30;;;;;;5021738;28;20004;-55
2021/10/29 05:37:32;;;;;;;;;;;18.10;59.30;;;;;;5020276;28;19921;-56
2021/10/29 05:39:58;;;;;;;;;;;18.10;59.20;;;;;;5021925;28;20004;-55
2021/10/29 05:42:24;;;;;;;;;;;18.10;59.10;;;;;;5022065;28;20349;-54
2021/10/29 05:44:49;;;;;;;;;;;18.10;58.90;;;;;;5021822;28;20417;-56
2021/10/29 05:47:16;;;;;;;;;;;18.10;58.70;;;;;;5020282;28;19923;-59
2021/10/29 05:49:42;;;;;;;;;;;18.10;58.30;;;;;;5019594;28;20365;-57
2021/10/29 05:52:15;;;;;;;;;;;18.10;58.00;;;;;;5028701;28;19931;-55
2021/10/29 05:55:03;;;;;;;;;;;18.10;57.80;;;;;;5033975;28;19913;-55
2021/10/29 05:57:26;;;;;;;;;;;18.10;57.70;;;;;;5034234;28;19917;-59
2021/10/29 05:59:52;;;;;;;;;;;18.10;57.40;;;;;;5026972;28;20094;-58
2021/10/29 06:02:19;;;;;;;;;;;18.10;57.40;;;;;;5025206;28;19920;-59
2021/10/29 06:04:44;;;;;;;;;;;18.10;57.30;;;;;;5022860;28;19914;-58
2021/10/29 06:07:10;;;;;;;;;;;18.10;57.00;;;;;;5028705;28;19920;-55
2021/10/29 06:09:35;;;;;;;;;;;18.10;56.50;;;;;;5015894;28;19967;-58
2021/10/29 06:12:01;;;;;;;;;;;18.10;56.10;;;;;;5026031;28;19913;-54
2021/10/29 06:14:27;;;;;;;;;;;18.10;55.70;;;;;;5036267;28;19913;-56
2021/10/29 06:16:56;;;;;;;;;;;18.10;55.50;;;;;;5025274;28;22361;-52
2021/10/29 06:19:22;;;;;;;;;;;18.10;55.50;;;;;;5028172;28;19968;-57
2021/10/29 06:22:03;;;;;;;;;;;18.10;55.40;;;;;;5019799;28;19913;-55
2021/10/29 06:24:29;;;;;;;;;;;18.10;55.50;;;;;;5035964;28;19924;-57
2021/10/29 06:29:20;;;;;;;;;;;18.10;55.50;;;;;;5023391;28;20016;-54
2021/10/29 06:31:46;;;;;;;;;;;18.10;55.50;;;;;;5020893;28;19921;-52
2021/10/29 06:34:11;;;;;;;;;;;18.10;55.40;;;;;;5018632;28;19917;-55
2021/10/29 06:36:37;;;;;;;;;;;18.10;55.50;;;;;;5020732;28;19913;-57
2021/10/29 06:39:03;;;;;;;;;;;18.10;55.40;;;;;;5019547;28;19959;-56
2021/10/29 06:41:28;;;;;;;;;;;18.00;55.40;;;;;;5019071;28;20115;-58
2021/10/29 06:46:37;;;;;;;;;;;18.00;55.40;;;;;;5019876;28;19913;-58
2021/10/29 06:59:55;;;;;;;;;;;17.90;55.80;;;;;;5029426;28;20306;-57
2021/10/29 07:40:37;;;;;;;;;;;18.30;56.70;;;;;;5029832;28;19920;-58
2021/10/29 07:43:05;;;;;;;;;;;18.30;56.80;;;;;;5023347;28;20002;-58
2021/10/29 07:45:31;;;;;;;;;;;18.30;57.00;;;;;;5023685;28;19917;-56
2021/10/29 07:47:57;;;;;;;;;;;18.30;57.00;;;;;;5023039;28;19913;-59
2021/10/29 07:50:23;;;;;;;;;;;18.40;57.00;;;;;;5023503;28;19918;-58
2021/10/29 07:52:49;;;;;;;;;;;18.40;57.00;;;;;;5003528;28;19917;-57
2021/10/29 07:55:15;;;;;;;;;;;18.40;57.00;;;;;;5029439;28;19919;-55
2021/10/29 07:57:41;;;;;;;;;;;18.40;57.00;;;;;;5035090;28;19924;-57
2021/10/29 08:00:07;;;;;;;;;;;18.40;57.60;;;;;;5040030;28;19913;-53
2021/10/29 08:02:32;;;;;;;;;;;18.40;57.00;;;;;;5038932;28;19919;-51
2021/10/29 08:04:58;;;;;;;;;;;18.40;57.00;;;;;;5040329;28;19999;-56
2021/10/29 08:07:23;;;;;;;;;;;18.40;57.00;;;;;;5031314;28;20016;-56
2021/10/29 08:09:49;;;;;;;;;;;18.40;57.00;;;;;;5035133;28;19919;-56
2021/10/29 08:12:19;;;;;;;;;;;18.40;57.00;;;;;;5043240;28;19963;-58
2021/10/29 08:14:46;;;;;;;;;;;18.40;57.10;;;;;;5019964;28;19917;-56
2021/10/29 08:17:11;;;;;;;;;;;18.40;57.00;;;;;;5025738;28;19993;-56
2021/10/29 08:19:37;;;;;;;;;;;18.40;57.00;;;;;;5010033;28;19948;-51
2021/10/29 08:22:03;;;;;;;;;;;18.50;57.00;;;;;;5040744;28;19956;-58
2021/10/29 08:24:28;;;;;;;;;;;18.50;57.00;;;;;;5041548;28;19938;-54
2021/10/29 08:26:54;;;;;;;;;;;18.50;57.00;;;;;;5019743;28;19928;-54
2021/10/29 08:29:20;;;;;;;;;;;18.50;57.00;;;;;;5023250;28;19913;-56
2021/10/29 08:31:47;;;;;;;;;;;18.50;57.00;;;;;;5022411;28;19913;-56
2021/10/29 08:34:12;;;;;;;;;;;18.50;57.00;;;;;;5027982;28;19975;-56
2021/10/29 08:36:39;;;;;;;;;;;18.50;57.00;;;;;;5014465;28;19920;-58
2021/10/29 08:39:07;;;;;;;;;;;18.50;57.00;;;;;;5021812;28;19917;-57
2021/10/29 08:41:33;;;;;;;;;;;18.50;57.00;;;;;;5011495;28;20147;-57
2021/10/29 08:43:59;;;;;;;;;;;18.50;57.00;;;;;;5021601;28;19921;-56
2021/10/29 08:46:25;;;;;;;;;;;18.40;57.00;;;;;;5020827;28;19913;-58
2021/10/29 08:48:51;;;;;;;;;;;18.50;56.90;;;;;;5013476;28;19914;-57
2021/10/29 08:51:17;;;;;;;;;;;18.50;57.00;;;;;;5019483;28;19923;-57
2021/10/29 08:53:43;;;;;;;;;;;18.50;57.00;;;;;;5021311;28;19913;-58
2021/10/29 08:56:09;;;;;;;;;;;18.50;57.00;;;;;;5022420;28;19924;-56
2021/10/29 08:58:54;;;;;;;;;;;18.50;57.00;;;;;;5021106;28;19917;-53
2021/10/29 09:01:20;;;;;;;;;;;18.40;57.00;;;;;;5052221;28;19920;-55
2021/10/29 09:03:47;;;;;;;;;;;18.40;57.00;;;;;;5032929;28;19913;-52
2021/10/29 09:06:27;;;;;;;;;;;18.40;57.00;;;;;;5025816;28;20215;-57
2021/10/29 09:09:04;;;;;;;;;;;18.40;57.00;;;;;;5025185;28;19916;-57
2021/10/29 09:17:03;;;;;;;;;;;18.40;57.00;;;;;;5026147;28;19975;-56
2021/10/29 09:31:31;;;;;;;;;;;18.30;57.20;;;;;;5026640;28;19920;-56
2021/10/29 09:33:57;;;;;;;;;;;18.30;57.30;;;;;;5004219;28;20015;-58
2021/10/29 09:36:26;;;;;;;;;;;18.30;57.40;;;;;;5038758;28;20004;-58
2021/10/29 09:38:55;;;;;;;;;;;18.30;57.40;;;;;;5034599;28;19921;-57
2021/10/29 09:41:23;;;;;;;;;;;18.30;57.40;;;;;;5024396;28;20378;-64
2021/10/29 09:43:55;;;;;;;;;;;18.30;57.50;;;;;;5022559;28;20735;-57
2021/10/29 09:46:42;;;;;;;;;;;18.20;57.50;;;;;;5034370;28;19924;-56
2021/10/29 09:49:09;;;;;;;;;;;18.20;57.60;;;;;;5031605;28;19913;-55
2021/10/29 09:51:47;;;;;;;;;;;18.20;57.60;;;;;;5037149;28;19952;-54
2021/10/29 09:54:15;;;;;;;;;;;18.20;57.60;;;;;;5032190;28;19924;-51
2021/10/29 09:59:13;;;;;;;;;;;18.20;57.80;;;;;;5021190;28;19921;-53
2021/10/29 10:01:39;;;;;;;;;;;18.20;57.80;;;;;;5021256;28;19966;-57
2021/10/29 10:04:05;;;;;;;;;;;18.10;57.90;;;;;;5015989;28;20363;-57
2021/10/29 10:06:31;;;;;;;;;;;18.10;58.00;;;;;;5024658;28;19921;-54
2021/10/29 10:09:00;;;;;;;;;;;18.10;58.10;;;;;;5026210;28;20279;-53
2021/10/29 10:11:28;;;;;;;;;;;18.10;58.10;;;;;;5019946;28;19945;-57
2021/10/29 10:13:54;;;;;;;;;;;18.00;58.20;;;;;;5021937;28;20003;-58
2021/10/29 10:16:19;;;;;;;;;;;18.10;58.20;;;;;;5046607;23;20019;-53
2021/10/29 10:18:46;;;;;;;;;;;18.00;58.30;;;;;;5050781;28;19916;-53
2021/10/29 10:21:13;;;;;;;;;;;18.00;58.30;;;;;;5042229;28;19920;-56
2021/10/29 10:23:40;;;;;;;;;;;18.00;58.30;;;;;;5051482;28;19912;-55
2021/10/29 10:28:54;;;;;;;;;;;18.00;58.30;;;;;;5052527;28;19912;-53
2021/10/29 10:47:26;;;;;;;;;;;18.00;58.60;;;;;;5047085;28;20308;-55
2021/10/29 10:50:02;;;;;;;;;;;18.00;58.60;;;;;;5029123;28;19913;-53
2021/10/29 10:52:30;;;;;;;;;;;18.00;58.60;;;;;;5057691;28;20003;-56
2021/10/29 10:55:10;;;;;;;;;;;18.00;58.60;;;;;;5033858;28;20343;-58
2021/10/29 10:57:49;;;;;;;;;;;17.90;58.70;;;;;;5040943;28;20306;-55
2021/10/29 11:03:10;;;;;;;;;;;17.90;58.90;;;;;;5054917;28;19925;-54
2021/10/29 11:10:58;;;;;;;;;;;17.90;58.90;;;;;;5035408;28;19925;-54
2021/10/29 11:13:26;;;;;;;;;;;17.90;59.00;;;;;;5049889;28;19966;-52
2021/10/29 11:16:01;;;;;;;;;;;17.90;59.10;;;;;;5031727;28;20500;-59
2021/10/29 11:18:31;;;;;;;;;;;17.90;59.10;;;;;;5051090;28;20100;-57
2021/10/29 11:21:05;;;;;;;;;;;17.90;59.20;;;;;;5043504;28;19913;-55
2021/10/29 11:23:32;;;;;;;;;;;17.80;59.20;;;;;;5040290;28;20489;-54
2021/10/29 11:26:02;;;;;;;;;;;17.90;59.30;;;;;;5046291;28;19913;-55
2021/10/29 11:28:34;;;;;;;;;;;17.90;59.20;;;;;;5042695;28;20470;-54
2021/10/29 11:31:00;;;;;;;;;;;17.90;59.20;;;;;;5028738;28;19912;-54
2021/10/29 11:33:26;;;;;;;;;;;17.90;59.10;;;;;;5051533;28;19912;-54
2021/10/29 11:36:04;;;;;;;;;;;17.90;59.10;;;;;;5038563;28;20002;-53
2021/10/29 11:38:30;;;;;;;;;;;17.90;59.10;;;;;;5047288;28;19923;-58
2021/10/29 11:40:56;;;;;;;;;;;17.90;58.90;;;;;;5029413;28;19920;-52
2021/10/29 11:43:22;;;;;;;;;;;17.90;58.80;;;;;;5046807;28;19920;-56
2021/10/29 11:45:47;;;;;;;;;;;17.90;58.80;;;;;;5041033;28;19917;-55
2021/10/29 11:48:13;;;;;;;;;;;17.90;58.80;;;;;;5053345;28;19928;-58
2021/10/29 11:50:39;;;;;;;;;;;17.90;58.80;;;;;;5040302;28;20599;-55
2021/10/29 11:53:04;;;;;;;;;;;17.90;58.80;;;;;;5046459;28;19924;-55
2021/10/29 11:55:45;;;;;;;;;;;17.90;58.90;;;;;;5042043;28;19985;-55
2021/10/29 11:58:52;;;;;;;;;;;17.90;58.90;;;;;;5061596;28;19920;-53
2021/10/29 12:09:22;;;;;;;;;;;18.00;59.30;;;;;;5058770;28;19927;-56
2021/10/29 12:11:57;;;;;;;;;;;17.90;59.40;;;;;;5036262;28;20368;-53
2021/10/29 12:14:29;;;;;;;;;;;17.90;59.50;;;;;;5055336;28;19916;-57
2021/10/29 12:16:59;;;;;;;;;;;17.90;59.60;;;;;;5030595;28;20404;-58
2021/10/29 12:19:24;;;;;;;;;;;17.90;59.60;;;;;;5051406;28;19913;-58
2021/10/29 12:22:06;;;;;;;;;;;18.00;59.70;;;;;;5034522;28;19922;-54
2021/10/29 12:24:34;;;;;;;;;;;17.90;59.70;;;;;;5025799;28;20066;-55
2021/10/29 12:27:03;;;;;;;;;;;18.00;59.70;;;;;;5045016;28;20404;-55
2021/10/29 12:29:32;;;;;;;;;;;17.90;60.40;;;;;;5049268;28;19919;-53
2021/10/29 12:37:44;;;;;;;;;;;18.00;59.80;;;;;;5047880;28;19917;-57
2021/10/29 12:58:48;;;;;;;;;;;18.00;59.80;;;;;;5047905;28;19919;-56
2021/10/29 13:03:04;;;;;;;;;;;18.00;60.10;;;;;;5061369;28;19920;-55
2021/10/29 13:05:30;;;;;;;;;;;18.00;60.20;;;;;;5039117;28;20007;-56
2021/10/29 13:07:55;;;;;;;;;;;18.00;60.10;;;;;;5053766;28;19917;-57
2021/10/29 13:10:21;;;;;;;;;;;18.00;60.20;;;;;;5038882;28;20701;-55
2021/10/29 13:12:58;;;;;;;;;;;18.00;60.10;;;;;;5047584;28;19927;-56
2021/10/29 13:15:24;;;;;;;;;;;18.10;60.30;;;;;;5020983;28;19924;-56
2021/10/29 13:18:09;;;;;;;;;;;18.00;60.40;;;;;;5060719;28;19916;-54
2021/10/29 13:50:32;;;;;;;;;;;18.00;60.70;;;;;;5043269;28;19920;-58
2021/10/29 14:30:35;;;;;;;;;;;18.10;61.00;;;;;;5048105;28;19939;-57
2021/10/29 14:33:07;;;;;;;;;;;18.10;61.00;;;;;;5043299;28;20588;-52
2021/10/29 14:35:36;;;;;;;;;;;18.10;61.30;;;;;;5042950;28;19912;-56
2021/10/29 14:38:14;;;;;;;;;;;18.10;60.90;;;;;;5059193;28;20054;-54
2021/10/29 14:40:53;;;;;;;;;;;18.10;61.00;;;;;;5060605;28;19952;-52
2021/10/29 14:43:24;;;;;;;;;;;18.10;61.00;;;;;;5040172;28;19912;-59
2021/10/29 14:46:02;;;;;;;;;;;18.10;60.90;;;;;;5054438;28;19966;-55
2021/10/29 15:04:49;;;;;;;;;;;18.10;60.90;;;;;;5039844;28;20360;-55
2021/10/29 15:14:45;;;;;;;;;;;18.10;60.80;;;;;;5057877;28;19920;-56
2021/10/29 15:17:01;;;;;;;;;;;18.10;60.90;;;;;;5042308;28;20289;-54
2021/10/29 15:29:32;;;;;;;;;;;18.10;60.90;;;;;;5060630;28;20000;-53
2021/10/29 15:32:22;;;;;;;;;;;18.00;60.90;;;;;;5054680;28;19921;-57
2021/10/29 15:45:40;;;;;;;;;;;18.00;61.10;;;;;;5046241;28;19920;-53
2021/10/29 15:48:18;;;;;;;;;;;18.00;61.00;;;;;;5063033;28;19966;-55
2021/10/29 15:50:44;;;;;;;;;;;18.00;61.10;;;;;;5047483;28;19917;-57
2021/10/29 15:53:12;;;;;;;;;;;18.00;61.10;;;;;;5043480;28;19921;-58
2021/10/29 15:55:42;;;;;;;;;;;18.00;61.10;;;;;;5056624;28;19913;-52
2021/10/29 15:58:19;;;;;;;;;;;18.00;61.10;;;;;;5054466;28;19995;-52
2021/10/29 16:19:35;;;;;;;;;;;18.00;61.20;;;;;;5051556;28;19920;-55
2021/10/29 16:22:05;;;;;;;;;;;18.00;61.30;;;;;;5059352;28;20046;-58
2021/10/29 16:24:31;;;;;;;;;;;18.00;61.30;;;;;;5052794;28;19913;-53
2021/10/29 16:26:57;;;;;;;;;;;18.00;61.30;;;;;;5052533;28;19913;-58
2021/10/29 16:29:25;;;;;;;;;;;18.00;61.30;;;;;;5059022;28;19975;-55
2021/10/29 16:31:50;;;;;;;;;;;18.00;61.30;;;;;;5061102;28;19912;-58
2021/10/29 16:34:16;;;;;;;;;;;18.00;61.30;;;;;;5045079;28;19921;-59
2021/10/29 16:36:41;;;;;;;;;;;18.00;61.30;;;;;;5052206;28;19912;-57
2021/10/29 16:39:07;;;;;;;;;;;18.00;61.30;;;;;;5046931;28;19923;-53
2021/10/29 16:41:33;;;;;;;;;;;18.00;61.30;;;;;;5056134;28;20149;-56
2021/10/29 16:43:58;;;;;;;;;;;18.00;61.30;;;;;;5047086;28;19920;-58
2021/10/29 16:46:24;;;;;;;;;;;18.00;61.30;;;;;;5049673;28;19921;-55
2021/10/29 16:48:49;;;;;;;;;;;18.00;61.30;;;;;;5042734;28;20092;-55
2021/10/29 16:51:15;;;;;;;;;;;17.90;61.30;;;;;;5051771;28;19913;-56
2021/10/29 16:53:41;;;;;;;;;;;18.00;61.40;;;;;;5054447;28;19921;-56
2021/10/29 16:56:06;;;;;;;;;;;17.90;61.30;;;;;;5051285;28;19913;-58
2021/10/29 16:58:32;;;;;;;;;;;18.00;61.30;;;;;;5045750;28;19917;-56
2021/10/29 17:00:57;;;;;;;;;;;18.00;61.30;;;;;;5042814;28;19913;-57
2021/10/29 17:03:24;;;;;;;;;;;18.00;61.30;;;;;;5056938;28;19916;-58
2021/10/29 17:05:50;;;;;;;;;;;18.00;61.30;;;;;;5063325;28;20365;-57
2021/10/29 17:08:16;;;;;;;;;;;17.90;61.30;;;;;;5056034;28;19912;-57
2021/10/29 17:10:41;;;;;;;;;;;18.00;61.30;;;;;;5053846;28;20482;-56
2021/10/29 17:13:07;;;;;;;;;;;18.00;61.20;;;;;;5045846;28;19921;-57
2021/10/29 17:15:33;;;;;;;;;;;18.00;61.20;;;;;;5047395;28;19932;-57
2021/10/29 17:17:59;;;;;;;;;;;18.00;61.20;;;;;;5057339;28;19928;-57
2021/10/29 17:20:24;;;;;;;;;;;18.00;61.20;;;;;;5052525;28;19913;-56
2021/10/29 17:22:50;;;;;;;;;;;18.00;61.10;;;;;;5049332;28;19919;-53
2021/10/29 17:25:16;;;;;;;;;;;18.00;61.10;;;;;;5049639;28;20282;-57
2021/10/29 17:27:41;;;;;;;;;;;18.00;61.10;;;;;;5022896;28;19928;-57
2021/10/29 17:30:07;;;;;;;;;;;18.00;61.10;;;;;;5043442;28;19913;-56
2021/10/29 17:32:33;;;;;;;;;;;18.00;61.10;;;;;;5046613;28;20487;-59
2021/10/29 17:34:59;;;;;;;;;;;18.00;61.10;;;;;;5042619;28;20286;-56
2021/10/29 17:37:28;;;;;;;;;;;18.00;61.00;;;;;;5060648;28;19924;-55
2021/10/29 17:39:53;;;;;;;;;;;18.00;61.00;;;;;;5046694;28;20068;-53
2021/10/29 17:42:19;;;;;;;;;;;18.00;61.00;;;;;;5044214;28;20297;-50
2021/10/29 17:44:44;;;;;;;;;;;18.00;60.90;;;;;;5045992;28;19916;-57
2021/10/29 17:47:10;;;;;;;;;;;18.00;60.90;;;;;;5041189;28;19951;-59
2021/10/29 17:49:35;;;;;;;;;;;18.00;60.90;;;;;;5045884;28;19912;-56
2021/10/29 17:52:02;;;;;;;;;;;18.00;60.90;;;;;;5053124;28;19916;-53
2021/10/29 17:54:31;;;;;;;;;;;18.00;60.90;;;;;;5047601;28;20374;-55
2021/10/29 17:56:56;;;;;;;;;;;18.00;60.90;;;;;;5052014;28;19996;-57
2021/10/29 17:59:24;;;;;;;;;;;18.00;60.80;;;;;;5016129;28;19931;-55
2021/10/29 18:01:49;;;;;;;;;;;18.00;60.70;;;;;;5005014;28;19914;-58
2021/10/29 18:04:14;;;;;;;;;;;18.00;60.70;;;;;;5020234;28;19968;-56
2021/10/29 18:06:40;;;;;;;;;;;18.00;60.70;;;;;;5016189;28;19914;-58
2021/10/29 18:09:08;;;;;;;;;;;18.00;60.70;;;;;;5007983;28;19987;-57
2021/10/29 18:11:35;;;;;;;;;;;18.00;60.90;;;;;;5013831;28;19928;-58
2021/10/29 18:14:00;;;;;;;;;;;18.00;61.20;;;;;;5011668;28;19920;-55
2021/10/29 18:16:27;;;;;;;;;;;18.00;61.40;;;;;;5010050;28;19926;-57
2021/10/29 18:18:57;;;;;;;;;;;18.00;61.50;;;;;;5031445;28;19921;-58
2021/10/29 18:21:22;;;;;;;;;;;18.00;61.60;;;;;;5027125;28;19979;-59
2021/10/29 18:23:52;;;;;;;;;;;18.00;61.60;;;;;;5038546;28;20389;-60
2021/10/29 18:26:21;;;;;;;;;;;18.00;61.60;;;;;;5025639;28;19920;-58
2021/10/29 18:28:47;;;;;;;;;;;18.00;61.80;;;;;;5028090;28;19964;-57
2021/10/29 18:31:12;;;;;;;;;;;18.00;61.80;;;;;;5022857;28;19937;-54
2021/10/29 18:33:38;;;;;;;;;;;18.00;61.80;;;;;;5025805;28;20547;-57
2021/10/29 18:36:03;;;;;;;;;;;18.00;61.80;;;;;;5030516;28;19920;-57
2021/10/29 18:38:28;;;;;;;;;;;18.00;61.80;;;;;;5022222;28;19921;-57
2021/10/29 18:40:54;;;;;;;;;;;18.00;61.90;;;;;;5021418;28;19920;-52
2021/10/29 18:43:19;;;;;;;;;;;18.00;61.90;;;;;;5037326;28;19913;-56
2021/10/29 18:45:45;;;;;;;;;;;18.00;61.90;;;;;;5023032;28;19917;-53